createdAt,value
2019-04-04T00:01:06.173Z,4.97
2019-04-04T00:02:09.869Z,5.00
2019-04-04T00:03:12.931Z,5.00
2019-04-04T00:04:16.380Z,4.99
2019-04-04T00:05:19.445Z,4.99
2019-04-04T00:31:21.356Z,4.67
2019-04-04T00:32:24.636Z,4.69
2019-04-04T00:33:27.357Z,4.73
2019-04-04T00:34:30.243Z,4.73
2019-04-04T00:35:33.423Z,4.51
2019-04-04T00:36:36.254Z,4.49
2019-04-04T00:37:41.032Z,4.49
2019-04-04T00:38:44.031Z,4.43
2019-04-04T00:39:46.909Z,4.43
2019-04-04T00:40:49.834Z,4.35
2019-04-04T00:41:52.962Z,4.29
2019-04-04T00:42:55.795Z,4.38
2019-04-04T00:43:58.903Z,4.34
2019-04-04T00:45:01.832Z,4.44
2019-04-04T00:46:04.484Z,4.37
2019-04-04T00:47:07.182Z,4.37
2019-04-04T00:48:09.994Z,4.30
2019-04-04T00:49:12.692Z,4.23
2019-04-04T00:50:15.997Z,4.29
2019-04-04T00:51:18.814Z,4.33
2019-04-04T00:52:21.994Z,4.37
2019-04-04T00:53:24.835Z,4.37
2019-04-04T00:54:28.022Z,4.33
2019-04-04T00:55:30.931Z,4.35
2019-04-04T00:56:33.889Z,4.43
2019-04-04T00:57:36.939Z,4.47
2019-04-04T00:58:39.596Z,4.47
2019-04-04T00:59:42.431Z,4.49
2019-04-04T01:00:45.313Z,4.49
2019-04-04T01:01:48.168Z,4.47
2019-04-04T01:02:51.366Z,4.45
2019-04-04T01:03:54.554Z,4.44
2019-04-04T01:04:57.403Z,4.38
2019-04-04T01:06:02.789Z,4.36
2019-04-04T01:07:05.063Z,4.46
2019-04-04T01:08:08.557Z,4.46
2019-04-04T01:09:13.697Z,4.55
2019-04-04T01:10:18.820Z,4.59
2019-04-04T01:11:21.258Z,4.54
2019-04-04T01:12:24.079Z,4.54
2019-04-04T01:13:27.738Z,4.54
2019-04-04T01:14:30.655Z,4.53
2019-04-04T01:15:34.934Z,4.52
2019-04-04T01:16:38.221Z,4.54
2019-04-04T01:17:41.038Z,4.54
2019-04-04T01:18:44.299Z,4.57
2019-04-04T01:19:48.843Z,4.58
2019-04-04T01:20:51.560Z,4.58
2019-04-04T01:21:55.104Z,4.52
2019-04-04T01:22:58.294Z,4.44
2019-04-04T01:24:01.138Z,4.38
2019-04-04T01:25:03.989Z,4.40
2019-04-04T01:26:06.939Z,4.40
2019-04-04T01:27:09.836Z,4.40
2019-04-04T01:28:12.941Z,4.43
2019-04-04T01:29:15.817Z,4.52
2019-04-04T01:30:18.627Z,4.58
2019-04-04T01:31:21.510Z,4.56
2019-04-04T01:32:24.447Z,4.55
2019-04-04T01:33:27.243Z,4.57
2019-04-04T01:34:30.363Z,4.61
2019-04-04T01:35:33.166Z,4.61
2019-04-04T01:36:37.430Z,4.54
2019-04-04T01:37:40.273Z,4.46
2019-04-04T01:38:43.129Z,4.44
2019-04-04T01:39:45.934Z,4.46
2019-04-04T01:40:49.615Z,4.44
2019-04-04T01:41:52.422Z,4.41
2019-04-04T01:42:55.279Z,4.41
2019-04-04T01:44:04.895Z,4.43
2019-04-04T01:45:03.039Z,4.48
2019-04-04T01:46:05.845Z,4.55
2019-04-04T01:47:10.110Z,4.55
2019-04-04T01:48:13.454Z,4.51
2019-04-04T01:49:16.727Z,4.54
2019-04-04T01:50:22.911Z,4.53
2019-04-04T01:51:26.149Z,4.55
2019-04-04T01:52:28.936Z,4.57
2019-04-04T01:53:32.114Z,4.58
2019-04-04T01:54:35.279Z,4.56
2019-04-04T01:55:38.524Z,4.47
2019-04-04T01:56:41.704Z,4.47
2019-04-04T01:57:44.952Z,4.42
2019-04-04T01:58:47.774Z,4.43
2019-04-04T01:59:50.961Z,4.39
2019-04-04T02:00:53.757Z,4.37
2019-04-04T02:01:56.586Z,4.37
2019-04-04T02:02:59.400Z,4.28
2019-04-04T02:04:02.199Z,4.25
2019-04-04T02:05:05.112Z,4.15
2019-04-04T02:06:08.237Z,4.18
2019-04-04T02:07:11.091Z,4.21
2019-04-04T02:08:13.916Z,4.22
2019-04-04T02:09:16.821Z,4.14
2019-04-04T02:10:19.640Z,4.14
2019-04-04T02:11:22.467Z,4.12
2019-04-04T02:12:28.822Z,4.12
2019-04-04T02:13:31.706Z,4.14
2019-04-04T02:14:34.501Z,4.10
2019-04-04T02:15:38.023Z,4.08
2019-04-04T02:16:40.828Z,4.11
2019-04-04T02:17:43.629Z,4.07
2019-04-04T02:18:46.837Z,4.04
2019-04-04T02:19:49.698Z,4.15
2019-04-04T02:20:52.504Z,4.15
2019-04-04T02:21:55.392Z,4.07
2019-04-04T02:23:01.232Z,4.14
2019-04-04T02:24:05.354Z,4.11
2019-04-04T02:25:08.470Z,4.06
2019-04-04T02:26:11.439Z,4.02
2019-04-04T02:27:14.292Z,4.06
2019-04-04T02:28:17.106Z,4.05
2019-04-04T02:29:19.931Z,4.08
2019-04-04T02:30:22.762Z,4.08
2019-04-04T02:31:27.576Z,4.06
2019-04-04T02:32:30.421Z,4.06
2019-04-04T02:33:33.675Z,4.00
2019-04-04T02:34:37.991Z,4.02
2019-04-04T02:35:43.702Z,4.09
2019-04-04T02:36:48.755Z,4.09
2019-04-04T02:37:50.283Z,4.01
2019-04-04T02:38:53.517Z,3.93
2019-04-04T02:39:56.303Z,3.96
2019-04-04T02:40:59.133Z,4.00
2019-04-04T02:42:01.987Z,4.00
2019-04-04T02:43:04.804Z,4.03
2019-04-04T02:44:09.551Z,4.02
2019-04-04T02:45:13.948Z,4.02
2019-04-04T02:46:16.809Z,4.02
2019-04-04T02:47:20.129Z,3.90
2019-04-04T02:48:24.417Z,3.85
2019-04-04T02:49:29.190Z,3.79
2019-04-04T02:50:35.524Z,3.79
2019-04-04T02:51:41.053Z,3.80
2019-04-04T02:52:45.676Z,3.74
2019-04-04T02:53:51.845Z,3.80
2019-04-04T02:54:57.095Z,3.80
2019-04-04T02:56:02.302Z,3.74
2019-04-04T02:57:02.092Z,3.82
2019-04-04T02:58:07.361Z,3.87
2019-04-04T02:59:10.620Z,3.89
2019-04-04T03:00:13.720Z,3.89
2019-04-04T03:01:16.559Z,3.92
2019-04-04T03:02:19.725Z,3.92
2019-04-04T03:03:22.617Z,3.95
2019-04-04T03:04:25.467Z,4.04
2019-04-04T03:05:28.729Z,4.01
2019-04-04T03:06:32.001Z,4.01
2019-04-04T03:07:35.180Z,4.05
2019-04-04T03:08:38.362Z,4.06
2019-04-04T03:09:43.320Z,4.04
2019-04-04T03:10:48.230Z,4.05
2019-04-04T03:11:53.484Z,4.05
2019-04-04T03:12:58.015Z,4.12
2019-04-04T03:14:03.468Z,4.12
2019-04-04T03:15:06.184Z,3.93
2019-04-04T03:16:08.411Z,3.93
2019-04-04T03:17:11.232Z,3.86
2019-04-04T03:18:14.395Z,3.81
2019-04-04T03:19:17.226Z,3.78
2019-04-04T03:20:20.499Z,3.88
2019-04-04T03:21:24.918Z,3.92
2019-04-04T03:22:28.399Z,3.93
2019-04-04T03:23:33.842Z,3.92
2019-04-04T03:24:38.899Z,3.88
2019-04-04T03:25:40.223Z,3.88
2019-04-04T03:26:43.943Z,3.92
2019-04-04T03:27:47.073Z,3.88
2019-04-04T03:28:49.937Z,3.88
2019-04-04T03:29:52.846Z,3.88
2019-04-04T03:31:02.451Z,3.86
2019-04-04T03:32:00.109Z,3.86
2019-04-04T03:33:03.255Z,3.93
2019-04-04T03:34:11.053Z,3.95
2019-04-04T03:35:12.527Z,3.97
2019-04-04T03:36:16.605Z,3.97
2019-04-04T03:37:19.432Z,3.97
2019-04-04T03:38:22.248Z,3.96
2019-04-04T03:39:28.609Z,3.95
2019-04-04T03:40:31.826Z,3.95
2019-04-04T03:41:35.791Z,3.95
2019-04-04T03:42:43.842Z,3.96
2019-04-04T03:43:47.887Z,3.92
2019-04-04T03:44:52.922Z,3.95
2019-04-04T03:45:52.998Z,4.01
2019-04-04T03:46:56.114Z,4.06
2019-04-04T03:47:58.934Z,4.06
2019-04-04T03:49:01.807Z,4.09
2019-04-04T03:50:04.720Z,4.09
2019-04-04T03:51:08.146Z,4.10
2019-04-04T03:52:11.610Z,4.10
2019-04-04T03:53:17.460Z,4.12
2019-04-04T03:54:23.414Z,4.14
2019-04-04T03:55:27.917Z,4.12
2019-04-04T03:56:38.951Z,4.13
2019-04-04T03:57:37.832Z,4.11
2019-04-04T03:58:40.835Z,4.12
2019-04-04T03:59:44.564Z,4.12
2019-04-04T04:00:47.528Z,4.12
2019-04-04T04:01:50.914Z,4.09
2019-04-04T04:02:53.738Z,4.09
2019-04-04T04:03:56.640Z,4.08
2019-04-04T04:05:02.106Z,4.07
2019-04-04T04:06:08.450Z,4.09
2019-04-04T04:07:13.733Z,4.09
2019-04-04T04:08:14.430Z,4.14
2019-04-04T04:09:18.399Z,4.16
2019-04-04T04:10:21.684Z,4.11
2019-04-04T04:11:24.966Z,4.11
2019-04-04T04:12:31.213Z,4.04
2019-04-04T04:13:34.607Z,4.04
2019-04-04T04:14:37.548Z,3.93
2019-04-04T04:15:40.367Z,3.99
2019-04-04T04:16:43.191Z,3.95
2019-04-04T04:17:46.518Z,3.93
2019-04-04T04:18:53.963Z,3.89
2019-04-04T04:19:54.335Z,3.88
2019-04-04T04:20:57.192Z,3.87
2019-04-04T04:22:00.143Z,3.89
2019-04-04T04:23:06.317Z,3.88
2019-04-04T04:24:09.118Z,3.81
2019-04-04T04:25:12.322Z,3.80
2019-04-04T04:26:15.160Z,3.78
2019-04-04T04:27:18.093Z,3.77
2019-04-04T04:28:22.641Z,3.65
2019-04-04T04:29:29.936Z,3.54
2019-04-04T04:30:32.970Z,3.54
2019-04-04T04:31:36.061Z,3.47
2019-04-04T04:32:38.952Z,3.47
2019-04-04T04:33:42.190Z,3.46
2019-04-04T04:34:47.656Z,3.46
2019-04-04T04:35:50.523Z,3.47
2019-04-04T04:36:53.332Z,3.55
2019-04-04T04:37:56.513Z,3.55
2019-04-04T04:39:03.946Z,3.65
2019-04-04T04:40:06.767Z,3.68
2019-04-04T04:41:13.242Z,3.68
2019-04-04T04:42:16.068Z,3.73
2019-04-04T04:43:18.968Z,3.75
2019-04-04T04:44:23.953Z,3.68
2019-04-04T04:45:26.871Z,3.65
2019-04-04T04:46:29.696Z,3.65
2019-04-04T04:47:32.590Z,3.63
2019-04-04T04:48:35.503Z,3.59
2019-04-04T04:49:38.331Z,3.56
2019-04-04T04:50:41.551Z,3.45
2019-04-04T04:51:44.660Z,3.51
2019-04-04T04:52:48.023Z,3.51
2019-04-04T04:53:51.301Z,3.57
2019-04-04T04:54:54.652Z,3.57
2019-04-04T04:56:00.498Z,3.57
2019-04-04T04:57:05.012Z,3.57
2019-04-04T04:58:10.260Z,3.60
2019-04-04T04:59:15.293Z,3.67
2019-04-04T05:00:18.120Z,3.74
2019-04-04T05:01:20.940Z,3.74
2019-04-04T05:02:26.050Z,3.76
2019-04-04T05:03:33.695Z,3.78
2019-04-04T05:04:37.851Z,3.74
2019-04-04T05:05:40.645Z,3.74
2019-04-04T05:06:43.563Z,3.82
2019-04-04T05:07:46.496Z,3.75
2019-04-04T05:08:49.349Z,3.75
2019-04-04T05:09:52.918Z,3.81
2019-04-04T05:10:55.741Z,3.90
2019-04-04T05:11:58.689Z,3.87
2019-04-04T05:13:01.496Z,3.88
2019-04-04T05:14:04.368Z,3.91
2019-04-04T05:15:07.727Z,3.91
2019-04-04T05:16:13.843Z,3.88
2019-04-04T05:17:17.560Z,3.91
2019-04-04T05:18:20.379Z,3.91
2019-04-04T05:19:23.755Z,3.92
2019-04-04T05:20:29.854Z,4.08
2019-04-04T05:21:33.912Z,4.08
2019-04-04T05:22:40.011Z,4.12
2019-04-04T05:23:47.101Z,4.05
2019-04-04T05:25:06.992Z,4.03
2019-04-04T05:25:54.786Z,4.03
2019-04-04T05:26:57.669Z,4.03
2019-04-04T05:28:00.477Z,4.03
2019-04-04T05:29:13.227Z,3.99
2019-04-04T05:43:49.902Z,4.08
2019-04-04T05:44:52.883Z,4.14
2019-04-04T05:45:55.874Z,4.11
2019-04-04T05:46:59.326Z,4.11
2019-04-04T05:48:02.218Z,4.13
2019-04-04T05:49:08.255Z,4.18
2019-04-04T05:50:16.406Z,4.23
2019-04-04T05:51:21.375Z,4.17
2019-04-04T05:52:24.243Z,4.14
2019-04-04T05:53:27.636Z,4.18
2019-04-04T05:54:30.690Z,4.14
2019-04-04T05:55:34.209Z,4.10
2019-04-04T05:56:37.520Z,4.10
2019-04-04T05:57:40.397Z,4.17
2019-04-04T05:58:43.205Z,4.15
2019-04-04T05:59:48.862Z,4.14
2019-04-04T06:00:57.587Z,4.20
2019-04-04T06:01:59.970Z,4.21
2019-04-04T06:03:02.939Z,4.18
2019-04-04T06:04:06.153Z,4.17
2019-04-04T06:05:09.014Z,4.20
2019-04-04T06:06:11.908Z,4.16
2019-04-04T06:07:16.489Z,4.16
2019-04-04T06:08:19.720Z,4.16
2019-04-04T06:09:22.588Z,4.08
2019-04-04T06:10:25.616Z,4.09
2019-04-04T06:11:28.737Z,4.15
2019-04-04T06:12:31.576Z,4.15
2019-04-04T06:13:35.137Z,4.21
2019-04-04T06:14:38.591Z,4.34
2019-04-04T06:15:43.604Z,4.31
2019-04-04T06:16:46.847Z,4.31
2019-04-04T06:17:50.464Z,4.31
2019-04-04T06:18:53.883Z,4.37
2019-04-04T06:19:56.742Z,4.37
2019-04-04T06:20:59.995Z,4.12
2019-04-04T06:22:02.786Z,3.97
2019-04-04T06:23:05.627Z,4.02
2019-04-04T06:24:08.969Z,4.06
2019-04-04T06:25:15.282Z,3.97
2019-04-04T06:26:18.356Z,4.07
2019-04-04T06:27:23.116Z,4.07
2019-04-04T06:28:26.001Z,4.08
2019-04-04T06:29:28.915Z,4.14
2019-04-04T06:30:42.531Z,4.25
2019-04-04T06:31:36.476Z,4.33
2019-04-04T06:32:39.627Z,4.37
2019-04-04T06:33:43.564Z,4.43
2019-04-04T06:34:48.582Z,4.46
2019-04-04T06:35:51.631Z,4.51
2019-04-04T06:36:54.939Z,4.54
2019-04-04T06:37:57.787Z,4.57
2019-04-04T06:39:00.677Z,4.57
2019-04-04T06:40:06.078Z,4.56
2019-04-04T06:41:08.984Z,4.60
2019-04-04T06:42:11.851Z,4.59
2019-04-04T06:43:15.072Z,4.66
2019-04-04T06:44:20.761Z,4.66
2019-04-04T06:45:23.661Z,4.66
2019-04-04T06:46:29.377Z,4.60
2019-04-04T06:47:32.543Z,4.64
2019-04-04T06:48:37.075Z,4.60
2019-04-04T06:49:45.729Z,4.54
2019-04-04T06:50:47.778Z,4.55
2019-04-04T06:51:50.675Z,4.50
2019-04-04T06:52:56.383Z,4.50
2019-04-04T06:54:01.070Z,4.55
2019-04-04T06:55:04.022Z,4.56
2019-04-04T06:56:06.920Z,4.56
2019-04-04T06:57:09.739Z,4.53
2019-04-04T06:58:12.710Z,4.51
2019-04-04T06:59:15.627Z,4.51
2019-04-04T07:00:18.514Z,4.51
2019-04-04T07:01:25.190Z,4.51
2019-04-04T07:02:26.760Z,4.50
2019-04-04T07:03:29.788Z,4.42
2019-04-04T07:04:35.834Z,4.44
2019-04-04T07:05:38.823Z,4.44
2019-04-04T07:06:42.415Z,4.44
2019-04-04T07:07:51.555Z,4.45
2019-04-04T07:08:53.551Z,4.45
2019-04-04T07:09:56.512Z,4.24
2019-04-04T07:11:02.732Z,4.36
2019-04-04T07:12:06.536Z,4.35
2019-04-04T07:13:21.190Z,4.32
2019-04-04T07:14:13.768Z,4.36
2019-04-04T07:15:16.743Z,4.36
2019-04-04T07:16:19.713Z,4.36
2019-04-04T07:17:22.665Z,4.30
2019-04-04T07:18:31.195Z,4.23
2019-04-04T07:19:35.042Z,4.23
2019-04-04T07:20:40.101Z,4.23
2019-04-04T07:21:44.415Z,4.18
2019-04-04T07:22:47.318Z,4.18
2019-04-04T07:23:50.215Z,4.13
2019-04-04T07:24:54.193Z,4.09
2019-04-04T07:25:57.854Z,4.15
2019-04-04T07:27:00.703Z,4.15
2019-04-04T07:28:03.635Z,4.14
2019-04-04T07:29:06.511Z,4.16
2019-04-04T07:30:09.519Z,4.16
2019-04-04T07:31:16.165Z,4.10
2019-04-04T07:32:19.482Z,4.05
2019-04-04T07:33:24.318Z,4.05
2019-04-04T07:34:27.205Z,4.05
2019-04-04T07:35:30.080Z,4.15
2019-04-04T07:36:32.943Z,4.09
2019-04-04T07:37:36.164Z,4.06
2019-04-04T07:38:39.289Z,4.15
2019-04-04T07:39:42.132Z,4.15
2019-04-04T07:40:45.061Z,4.14
2019-04-04T07:41:47.968Z,4.14
2019-04-04T07:42:50.845Z,4.06
2019-04-04T07:43:54.963Z,4.07
2019-04-04T07:44:58.183Z,4.14
2019-04-04T07:46:15.701Z,4.17
2019-04-04T07:47:10.943Z,4.19
2019-04-04T07:48:18.509Z,4.19
2019-04-04T07:49:23.210Z,4.13
2019-04-04T07:50:26.266Z,4.17
2019-04-04T07:51:30.889Z,4.17
2019-04-04T07:52:34.387Z,4.21
2019-04-04T07:53:37.324Z,4.25
2019-04-04T07:54:40.701Z,4.18
2019-04-04T07:55:45.937Z,4.17
2019-04-04T07:56:48.977Z,4.14
2019-04-04T07:57:52.377Z,4.13
2019-04-04T07:58:55.335Z,4.08
2019-04-04T07:59:58.296Z,4.14
2019-04-04T08:01:04.311Z,4.05
2019-04-04T08:02:07.234Z,4.11
2019-04-04T08:03:11.438Z,4.06
2019-04-04T08:04:14.592Z,4.06
2019-04-04T08:05:17.616Z,4.07
2019-04-04T08:06:23.298Z,4.02
2019-04-04T08:07:26.146Z,3.97
2019-04-04T08:08:29.054Z,3.92
2019-04-04T08:09:40.736Z,3.93
2019-04-04T08:10:51.166Z,3.96
2019-04-04T08:11:58.356Z,3.92
2019-04-04T08:13:03.442Z,3.92
2019-04-04T08:14:06.293Z,3.85
2019-04-04T08:15:09.963Z,3.80
2019-04-04T08:16:16.352Z,3.78
2019-04-04T08:17:19.711Z,3.81
2019-04-04T08:18:22.567Z,3.81
2019-04-04T08:19:25.448Z,3.79
2019-04-04T08:20:30.845Z,3.92
2019-04-04T08:21:37.179Z,3.92
2019-04-04T08:22:43.084Z,3.98
2019-04-04T08:23:47.855Z,3.98
2019-04-04T08:24:50.509Z,3.84
2019-04-04T08:25:56.236Z,3.80
2019-04-04T08:26:59.357Z,3.80
2019-04-04T08:28:02.200Z,3.81
2019-04-04T08:29:09.346Z,3.88
2019-04-04T08:30:19.457Z,3.74
2019-04-04T08:31:22.655Z,3.78
2019-04-04T08:32:27.791Z,3.79
2019-04-04T08:33:35.118Z,3.79
2019-04-04T08:34:36.526Z,3.81
2019-04-04T08:35:40.041Z,3.85
2019-04-04T08:36:42.920Z,3.82
2019-04-04T08:37:45.829Z,3.74
2019-04-04T08:38:49.364Z,3.65
2019-04-04T08:39:56.272Z,3.66
2019-04-04T08:41:10.989Z,3.74
2019-04-04T10:42:51.167Z,4.97
2019-04-04T10:43:56.989Z,5.00
2019-04-04T10:45:03.739Z,5.00
2019-04-04T10:46:10.266Z,4.91
2019-04-04T10:47:15.142Z,4.91
2019-04-04T10:48:21.097Z,4.96
2019-04-04T10:49:28.379Z,4.92
2019-04-04T10:50:31.273Z,4.94
2019-04-04T10:51:35.495Z,4.94
2019-04-04T10:52:38.678Z,5.00
2019-04-04T10:55:07.987Z,5.00
2019-04-04T10:56:12.185Z,5.07
2019-04-04T10:57:16.497Z,5.04
2019-04-04T10:58:19.331Z,5.05
2019-04-04T10:59:25.364Z,5.12
2019-04-04T11:00:28.618Z,5.13
2019-04-04T11:01:31.596Z,5.16
2019-04-04T11:02:34.595Z,5.16
2019-04-04T11:03:45.743Z,5.16
2019-04-04T11:04:52.453Z,5.16
2019-04-04T11:06:00.397Z,5.06
2019-04-04T11:07:04.157Z,5.03
2019-04-04T11:08:07.534Z,5.00
2019-04-04T11:09:10.958Z,4.98
2019-04-04T11:10:16.084Z,4.98
2019-04-04T11:11:30.065Z,5.02
2019-04-04T11:12:45.343Z,5.04
2019-04-04T11:13:49.550Z,5.01
2019-04-04T11:14:52.816Z,4.99
2019-04-04T11:16:12.497Z,4.96
2019-04-04T11:17:28.227Z,4.93
2019-04-04T11:18:36.110Z,4.87
2019-04-04T11:19:51.239Z,4.87
2019-04-04T11:20:54.451Z,5.00
2019-04-04T11:21:57.395Z,5.00
2019-04-04T11:23:00.713Z,5.00
2019-04-04T11:24:03.755Z,5.00
2019-04-04T11:25:18.786Z,4.97
2019-04-04T11:26:23.692Z,4.97
2019-04-04T11:27:32.988Z,4.97
2019-04-04T11:28:35.884Z,5.04
2019-04-04T11:29:38.952Z,5.01
2019-04-04T11:30:41.872Z,4.97
2019-04-04T11:31:45.441Z,5.03
2019-04-04T11:32:49.159Z,5.03
2019-04-04T11:35:17.143Z,5.05
2019-04-04T11:36:22.746Z,5.11
2019-04-04T11:40:09.029Z,5.26
2019-04-04T11:41:13.900Z,5.33
2019-04-04T11:42:19.671Z,5.35
2019-04-04T11:43:25.642Z,5.32
2019-04-04T11:44:40.237Z,5.30
2019-04-04T11:45:44.443Z,5.34
2019-04-04T11:46:50.762Z,5.37
2019-04-04T11:47:54.070Z,5.42
2019-04-04T11:48:59.195Z,5.26
2019-04-04T11:50:01.706Z,5.28
2019-04-04T11:51:07.425Z,5.28
2019-04-04T11:52:19.368Z,5.41
2019-04-04T11:53:22.200Z,5.41
2019-04-04T11:54:27.800Z,5.42
2019-04-04T11:55:33.160Z,5.42
2019-04-04T11:56:38.033Z,5.32
2019-04-04T11:57:40.777Z,5.37
2019-04-04T11:58:47.552Z,5.34
2019-04-04T11:59:50.405Z,5.42
2019-04-04T12:00:58.393Z,5.45
2019-04-04T12:02:01.601Z,5.44
2019-04-04T12:03:04.517Z,5.43
2019-04-04T12:04:09.011Z,5.44
2019-04-04T12:05:14.774Z,5.47
2019-04-04T12:06:17.641Z,5.54
2019-04-04T12:07:23.424Z,5.54
2019-04-04T12:08:28.992Z,5.62
2019-04-04T12:09:31.866Z,5.62
2019-04-04T12:10:34.748Z,5.47
2019-04-04T12:11:38.944Z,5.47
2019-04-04T12:12:41.811Z,5.40
2019-04-04T12:13:44.710Z,5.35
2019-04-04T12:14:48.244Z,5.35
2019-04-04T12:15:53.591Z,5.38
2019-04-04T12:16:59.300Z,5.36
2019-04-04T12:18:04.209Z,5.36
2019-04-04T12:19:07.782Z,5.36
2019-04-04T12:20:16.785Z,5.38
2019-04-04T12:21:22.346Z,5.33
2019-04-04T12:22:25.359Z,5.32
2019-04-04T12:23:28.270Z,5.30
2019-04-04T12:24:32.630Z,5.30
2019-04-04T12:25:39.434Z,5.30
2019-04-04T12:26:42.351Z,5.35
2019-04-04T12:27:47.676Z,5.42
2019-04-04T12:28:50.273Z,5.28
2019-04-04T12:30:04.042Z,5.33
2019-04-04T12:31:07.153Z,5.33
2019-04-04T12:32:10.611Z,5.26
2019-04-04T12:33:15.096Z,5.26
2019-04-04T12:34:19.121Z,5.28
2019-04-04T12:35:22.460Z,5.39
2019-04-04T12:36:26.320Z,5.49
2019-04-04T12:37:29.394Z,5.46
2019-04-04T12:38:32.321Z,5.52
2019-04-04T12:39:36.048Z,5.56
2019-04-04T12:40:39.631Z,5.39
2019-04-04T12:41:44.114Z,5.39
2019-04-04T12:42:49.172Z,5.50
2019-04-04T12:43:51.699Z,5.45
2019-04-04T12:44:54.611Z,5.45
2019-04-04T12:46:03.832Z,5.44
2019-04-04T12:47:09.120Z,5.57
2019-04-04T12:48:12.377Z,5.64
2019-04-04T12:49:16.889Z,5.64
2019-04-04T12:50:19.773Z,5.64
2019-04-04T12:51:22.703Z,5.72
2019-04-04T12:52:25.961Z,5.75
2019-04-04T12:53:28.946Z,5.75
2019-04-04T12:54:31.837Z,5.57
2019-04-04T12:55:34.676Z,5.57
2019-04-04T12:56:38.100Z,5.59
2019-04-04T12:57:40.936Z,5.68
2019-04-04T12:58:44.113Z,5.68
2019-04-04T12:59:47.250Z,5.54
2019-04-04T13:00:53.041Z,5.59
2019-04-04T13:01:56.032Z,5.50
2019-04-04T13:03:02.832Z,5.52
2019-04-04T13:04:07.966Z,5.52
2019-04-04T13:05:11.258Z,5.57
2019-04-04T13:06:16.836Z,5.43
2019-04-04T13:07:19.617Z,5.39
2019-04-04T13:08:22.463Z,5.36
2019-04-04T13:09:25.356Z,5.39
2019-04-04T13:10:33.390Z,5.47
2019-04-04T13:11:39.925Z,5.47
2019-04-04T13:12:47.318Z,5.50
2019-04-04T13:13:53.185Z,5.33
2019-04-04T13:14:57.459Z,5.00
2019-04-04T13:16:00.217Z,5.14
2019-04-04T13:17:04.204Z,5.19
2019-04-04T13:18:32.829Z,5.28
2019-04-04T13:19:39.094Z,5.28
2019-04-04T13:20:41.538Z,5.30
2019-04-04T13:21:48.787Z,5.34
2019-04-04T13:22:51.473Z,5.36
2019-04-04T13:23:57.457Z,5.36
2019-04-04T13:25:03.216Z,5.28
2019-04-04T13:26:08.884Z,5.29
2019-04-04T13:27:11.715Z,5.21
2019-04-04T13:28:14.567Z,5.27
2019-04-04T13:29:17.473Z,5.14
2019-04-04T13:30:25.097Z,5.18
2019-04-04T13:31:31.045Z,5.22
2019-04-04T13:32:36.885Z,5.27
2019-04-04T13:33:42.434Z,5.36
2019-04-04T13:34:59.249Z,5.46
2019-04-04T13:36:10.266Z,5.47
2019-04-04T13:37:17.625Z,5.49
2019-04-04T13:38:24.064Z,5.42
2019-04-04T13:39:26.907Z,5.38
2019-04-04T13:40:30.312Z,5.38
2019-04-04T13:41:33.782Z,5.38
2019-04-04T13:42:38.226Z,5.40
2019-04-04T13:43:43.331Z,5.42
2019-04-04T13:44:46.771Z,5.45
2019-04-04T13:45:49.703Z,5.41
2019-04-04T13:46:54.117Z,5.35
2019-04-04T13:47:56.980Z,5.30
2019-04-04T13:48:59.812Z,5.30
2019-04-04T13:50:02.821Z,5.27
2019-04-04T13:51:06.200Z,5.05
2019-04-04T13:52:11.575Z,5.13
2019-04-04T13:53:15.283Z,5.11
2019-04-04T13:54:18.014Z,5.11
2019-04-04T13:55:25.169Z,5.11
2019-04-04T13:56:29.329Z,5.05
2019-04-04T13:57:35.835Z,5.06
2019-04-04T13:58:39.038Z,5.06
2019-04-04T13:59:44.456Z,5.08
2019-04-04T14:00:50.053Z,5.10
2019-04-04T14:01:54.010Z,5.10
2019-04-04T14:02:57.316Z,5.03
2019-04-04T14:04:00.458Z,5.02
2019-04-04T14:05:10.042Z,5.06
2019-04-04T14:06:12.115Z,5.06
2019-04-04T14:07:15.015Z,5.03
2019-04-04T14:08:19.303Z,5.00
2019-04-04T14:09:24.266Z,5.00
2019-04-04T14:10:28.511Z,4.94
2019-04-04T14:11:32.537Z,4.94
2019-04-04T14:12:40.018Z,5.03
2019-04-04T14:13:43.387Z,5.07
2019-04-04T14:14:58.116Z,5.11
2019-04-04T14:15:54.202Z,5.00
2019-04-04T14:16:58.551Z,5.03
2019-04-04T14:18:08.408Z,5.03
2019-04-04T14:19:12.445Z,5.10
2019-04-04T14:20:15.302Z,5.02
2019-04-04T14:21:20.087Z,5.05
2019-04-04T14:23:34.421Z,4.99
2019-04-04T14:24:37.448Z,4.99
2019-04-04T14:25:40.554Z,4.97
2019-04-04T14:26:46.462Z,5.03
2019-04-04T14:27:52.975Z,5.05
2019-04-04T14:28:59.262Z,5.08
2019-04-04T14:30:04.475Z,5.04
2019-04-04T14:31:10.190Z,5.08
2019-04-04T14:32:13.241Z,5.11
2019-04-04T14:33:18.908Z,5.11
2019-04-04T14:34:21.576Z,5.07
2019-04-04T14:35:24.757Z,5.09
2019-04-04T14:36:27.622Z,5.09
2019-04-04T14:37:32.758Z,5.16
2019-04-04T14:38:48.555Z,5.16
2019-04-04T14:39:54.723Z,5.18
2019-04-04T14:41:11.207Z,5.14
2019-04-04T14:42:12.620Z,5.05
2019-04-04T14:43:18.696Z,5.05
2019-04-04T14:44:28.087Z,5.10
2019-04-04T14:45:32.596Z,5.14
2019-04-04T14:46:42.518Z,5.12
2019-04-04T14:48:00.141Z,5.10
2019-04-04T14:49:04.650Z,5.11
2019-04-04T14:50:07.551Z,5.14
2019-04-04T14:51:10.597Z,5.17
2019-04-04T14:52:13.416Z,5.22
2019-04-04T14:53:19.796Z,5.27
2019-04-04T14:54:23.166Z,5.15
2019-04-04T14:55:26.028Z,5.22
2019-04-04T14:56:29.184Z,5.18
2019-04-04T14:57:32.599Z,5.24
2019-04-04T14:58:38.706Z,5.23
2019-04-04T14:59:42.601Z,5.08
2019-04-04T15:00:49.239Z,5.09
2019-04-04T15:02:01.925Z,5.06
2019-04-04T15:03:04.645Z,5.16
2019-04-04T15:04:09.902Z,5.16
2019-04-04T15:05:15.669Z,5.21
2019-04-04T15:06:21.938Z,5.23
2019-04-04T15:07:33.971Z,5.27
2019-04-04T15:08:38.766Z,5.28
2019-04-04T15:09:41.681Z,5.31
2019-04-04T15:10:44.613Z,5.34
2019-04-04T15:11:47.685Z,5.38
2019-04-04T15:12:53.220Z,5.38
2019-04-04T15:13:59.075Z,5.09
2019-04-04T15:15:03.905Z,4.97
2019-04-04T15:16:09.468Z,5.01
2019-04-04T15:17:11.197Z,4.95
2019-04-04T15:18:17.300Z,4.95
2019-04-04T15:19:21.230Z,5.08
2019-04-04T15:20:25.462Z,5.11
2019-04-04T15:21:28.308Z,5.18
2019-04-04T15:22:33.858Z,5.22
2019-04-04T15:23:37.318Z,5.15
2019-04-04T15:24:42.125Z,5.16
2019-04-04T15:25:44.643Z,5.23
2019-04-04T15:26:50.084Z,5.23
2019-04-04T15:27:53.131Z,5.26
2019-04-04T15:28:57.933Z,5.34
2019-04-04T15:30:00.764Z,5.34
2019-04-04T15:31:04.246Z,5.21
2019-04-04T15:32:09.571Z,5.17
2019-04-04T15:33:12.642Z,5.13
2019-04-04T15:34:15.639Z,5.12
2019-04-04T15:35:21.457Z,5.23
2019-04-04T15:36:26.778Z,5.27
2019-04-04T15:37:29.622Z,5.32
2019-04-04T15:38:32.654Z,5.34
2019-04-04T15:39:35.776Z,5.34
2019-04-04T15:40:38.736Z,5.32
2019-04-04T15:41:42.190Z,5.33
2019-04-04T15:42:44.873Z,5.33
2019-04-04T15:43:47.647Z,5.24
2019-04-04T15:44:56.044Z,5.24
2019-04-04T15:45:56.818Z,5.19
2019-04-04T15:46:59.716Z,5.21
2019-04-04T15:48:02.928Z,5.21
2019-04-04T15:49:07.227Z,5.23
2019-04-04T15:50:10.173Z,5.18
2019-04-04T15:51:22.145Z,5.18
2019-04-04T15:52:24.977Z,5.26
2019-04-04T15:53:28.029Z,5.28
2019-04-04T15:54:33.342Z,5.27
2019-04-04T15:55:36.253Z,5.27
2019-04-04T15:56:39.419Z,5.00
2019-04-04T15:57:48.558Z,4.89
2019-04-04T15:58:54.637Z,4.89
2019-04-04T15:59:57.414Z,4.96
2019-04-04T16:01:00.295Z,4.94
2019-04-04T16:02:03.338Z,4.97
2019-04-04T16:03:06.255Z,4.94
2019-04-04T16:04:12.363Z,4.94
2019-04-04T16:05:18.640Z,4.94
2019-04-04T16:06:32.011Z,4.93
2019-04-04T16:07:33.303Z,4.85
2019-04-04T16:08:36.205Z,4.82
2019-04-04T16:09:41.895Z,4.72
2019-04-04T16:10:50.296Z,4.77
2019-04-04T16:11:53.261Z,4.85
2019-04-04T16:12:57.823Z,4.92
2019-04-04T16:14:00.755Z,4.92
2019-04-04T16:15:07.738Z,4.93
2019-04-04T16:16:10.800Z,4.97
2019-04-04T16:17:14.648Z,4.96
2019-04-04T16:18:22.180Z,4.96
2019-04-04T16:19:25.444Z,4.97
2019-04-04T16:20:35.648Z,4.93
2019-04-04T16:21:40.917Z,4.97
2019-04-04T16:22:44.051Z,4.99
2019-04-04T16:23:47.397Z,4.99
2019-04-04T16:24:52.700Z,5.07
2019-04-04T16:25:55.613Z,5.11
2019-04-04T16:26:58.490Z,5.11
2019-04-04T16:28:01.383Z,5.11
2019-04-04T16:29:04.120Z,5.11
2019-04-04T16:42:56.162Z,5.15
2019-04-04T16:44:05.302Z,5.12
2019-04-04T16:45:08.432Z,4.99
2019-04-04T16:46:16.688Z,5.02
2019-04-04T16:47:19.886Z,5.04
2019-04-04T16:48:22.902Z,5.00
2019-04-04T16:49:27.198Z,5.04
2019-04-04T16:50:30.019Z,5.08
2019-04-04T16:52:58.248Z,5.06
2019-04-04T16:54:03.024Z,5.10
2019-04-04T16:55:06.442Z,5.12
2019-04-04T16:56:09.295Z,5.08
2019-04-04T16:57:12.125Z,5.06
2019-04-04T16:58:16.036Z,5.06
2019-04-04T16:59:22.941Z,5.11
2019-04-04T17:00:30.269Z,5.10
2019-04-04T17:01:33.320Z,5.11
2019-04-04T17:02:38.752Z,5.12
2019-04-04T17:03:44.423Z,5.13
2019-04-04T17:04:50.478Z,5.13
2019-04-04T17:05:53.885Z,5.11
2019-04-04T17:06:59.567Z,5.07
2019-04-04T17:08:05.530Z,5.03
2019-04-04T17:09:10.481Z,5.05
2019-04-04T17:10:13.387Z,5.02
2019-04-04T17:11:16.812Z,5.04
2019-04-04T17:12:21.012Z,5.06
2019-04-04T17:13:25.859Z,5.04
2019-04-04T17:14:33.185Z,5.03
2019-04-04T17:15:39.915Z,5.02
2019-04-04T17:16:46.979Z,5.06